sensor_id;sensor_type;location;lat;lon;timestamp;P1;durP1;ratioP1;P2;durP2;ratioP2
57317;SDS011;43157;50.982;18.132;2023-11-18T00:01:08;26.20;;;7.50;;
57317;SDS011;43157;50.982;18.132;2023-11-18T00:03:34;25.50;;;8.70;;
57317;SDS011;43157;50.982;18.132;2023-11-18T00:06:00;21.50;;;6.70;;
57317;SDS011;43157;50.982;18.132;2023-11-18T00:08:25;16.40;;;6.50;;
57317;SDS011;43157;50.982;18.132;2023-11-18T00:10:51;29.10;;;9.30;;
57317;SDS011;43157;50.982;18.132;2023-11-18T00:13:16;21.30;;;7.20;;
57317;SDS011;43157;50.982;18.132;2023-11-18T00:15:42;27.00;;;10.10;;
57317;SDS011;43157;50.982;18.132;2023-11-18T00:18:08;18.40;;;6.60;;
57317;SDS011;43157;50.982;18.132;2023-11-18T00:20:33;23.10;;;8.90;;
57317;SDS011;43157;50.982;18.132;2023-11-18T00:23:01;16.20;;;7.60;;
57317;SDS011;43157;50.982;18.132;2023-11-18T00:25:30;25.00;;;9.80;;
57317;SDS011;43157;50.982;18.132;2023-11-18T00:27:56;19.90;;;9.30;;
57317;SDS011;43157;50.982;18.132;2023-11-18T00:30:22;45.00;;;16.80;;
57317;SDS011;43157;50.982;18.132;2023-11-18T00:32:49;24.20;;;10.20;;
57317;SDS011;43157;50.982;18.132;2023-11-18T00:35:14;20.10;;;8.80;;
57317;SDS011;43157;50.982;18.132;2023-11-18T00:37:40;19.20;;;8.50;;
57317;SDS011;43157;50.982;18.132;2023-11-18T00:40:07;17.70;;;8.30;;
57317;SDS011;43157;50.982;18.132;2023-11-18T00:42:35;22.00;;;8.90;;
57317;SDS011;43157;50.982;18.132;2023-11-18T00:45:00;23.70;;;9.20;;
57317;SDS011;43157;50.982;18.132;2023-11-18T00:47:26;20.50;;;8.10;;
57317;SDS011;43157;50.982;18.132;2023-11-18T00:49:52;23.90;;;8.60;;
57317;SDS011;43157;50.982;18.132;2023-11-18T00:52:18;17.50;;;7.30;;
57317;SDS011;43157;50.982;18.132;2023-11-18T00:54:44;17.50;;;8.10;;
57317;SDS011;43157;50.982;18.132;2023-11-18T00:57:10;20.10;;;8.40;;
57317;SDS011;43157;50.982;18.132;2023-11-18T00:59:35;16.60;;;7.20;;
57317;SDS011;43157;50.982;18.132;2023-11-18T01:02:01;16.00;;;7.10;;
57317;SDS011;43157;50.982;18.132;2023-11-18T01:04:29;12.90;;;6.20;;
57317;SDS011;43157;50.982;18.132;2023-11-18T01:06:58;14.40;;;6.40;;
57317;SDS011;43157;50.982;18.132;2023-11-18T01:09:23;14.60;;;6.00;;
57317;SDS011;43157;50.982;18.132;2023-11-18T01:11:50;16.30;;;7.40;;
57317;SDS011;43157;50.982;18.132;2023-11-18T01:14:16;18.10;;;7.10;;
57317;SDS011;43157;50.982;18.132;2023-11-18T01:16:42;13.60;;;6.30;;
57317;SDS011;43157;50.982;18.132;2023-11-18T01:19:09;12.50;;;5.80;;
57317;SDS011;43157;50.982;18.132;2023-11-18T01:21:35;13.20;;;6.30;;
57317;SDS011;43157;50.982;18.132;2023-11-18T01:24:01;12.50;;;5.90;;
57317;SDS011;43157;50.982;18.132;2023-11-18T01:26:27;13.90;;;6.40;;
57317;SDS011;43157;50.982;18.132;2023-11-18T01:28:53;11.30;;;5.50;;
57317;SDS011;43157;50.982;18.132;2023-11-18T01:31:20;12.50;;;4.00;;
57317;SDS011;43157;50.982;18.132;2023-11-18T01:33:47;11.00;;;3.60;;
57317;SDS011;43157;50.982;18.132;2023-11-18T01:36:15;7.60;;;2.20;;
57317;SDS011;43157;50.982;18.132;2023-11-18T01:38:41;5.60;;;1.80;;
57317;SDS011;43157;50.982;18.132;2023-11-18T01:41:06;7.10;;;2.10;;
57317;SDS011;43157;50.982;18.132;2023-11-18T01:43:33;4.80;;;1.50;;
57317;SDS011;43157;50.982;18.132;2023-11-18T01:45:59;7.10;;;2.10;;
57317;SDS011;43157;50.982;18.132;2023-11-18T01:48:27;6.50;;;1.90;;
57317;SDS011;43157;50.982;18.132;2023-11-18T01:50:55;7.00;;;2.10;;
57317;SDS011;43157;50.982;18.132;2023-11-18T01:53:23;7.40;;;1.90;;
57317;SDS011;43157;50.982;18.132;2023-11-18T01:55:49;5.70;;;1.50;;
57317;SDS011;43157;50.982;18.132;2023-11-18T01:58:15;8.10;;;2.40;;
57317;SDS011;43157;50.982;18.132;2023-11-18T02:00:45;6.90;;;2.10;;
57317;SDS011;43157;50.982;18.132;2023-11-18T02:03:12;7.30;;;2.00;;
57317;SDS011;43157;50.982;18.132;2023-11-18T02:05:38;6.20;;;2.20;;
57317;SDS011;43157;50.982;18.132;2023-11-18T02:08:04;6.10;;;1.90;;
57317;SDS011;43157;50.982;18.132;2023-11-18T02:10:30;7.30;;;2.40;;
57317;SDS011;43157;50.982;18.132;2023-11-18T02:15:31;9.70;;;3.90;;
57317;SDS011;43157;50.982;18.132;2023-11-18T02:17:59;12.10;;;5.60;;
57317;SDS011;43157;50.982;18.132;2023-11-18T02:20:27;12.70;;;6.00;;
57317;SDS011;43157;50.982;18.132;2023-11-18T02:22:54;12.70;;;5.80;;
57317;SDS011;43157;50.982;18.132;2023-11-18T02:25:20;12.60;;;5.10;;
57317;SDS011;43157;50.982;18.132;2023-11-18T02:27:49;12.50;;;4.80;;
57317;SDS011;43157;50.982;18.132;2023-11-18T02:30:14;13.30;;;5.80;;
57317;SDS011;43157;50.982;18.132;2023-11-18T02:32:48;12.40;;;5.00;;
57317;SDS011;43157;50.982;18.132;2023-11-18T02:35:29;11.40;;;5.00;;
57317;SDS011;43157;50.982;18.132;2023-11-18T02:38:00;12.40;;;5.90;;
57317;SDS011;43157;50.982;18.132;2023-11-18T02:40:39;15.40;;;6.40;;
57317;SDS011;43157;50.982;18.132;2023-11-18T02:43:09;15.00;;;7.60;;
57317;SDS011;43157;50.982;18.132;2023-11-18T02:45:35;16.50;;;9.00;;
57317;SDS011;43157;50.982;18.132;2023-11-18T02:48:01;13.80;;;5.80;;
57317;SDS011;43157;50.982;18.132;2023-11-18T02:50:27;10.60;;;4.30;;
57317;SDS011;43157;50.982;18.132;2023-11-18T02:52:53;11.30;;;5.40;;
57317;SDS011;43157;50.982;18.132;2023-11-18T02:55:19;9.90;;;3.60;;
57317;SDS011;43157;50.982;18.132;2023-11-18T02:57:47;7.60;;;2.40;;
57317;SDS011;43157;50.982;18.132;2023-11-18T03:00:14;6.80;;;2.10;;
57317;SDS011;43157;50.982;18.132;2023-11-18T03:02:47;5.60;;;1.80;;
57317;SDS011;43157;50.982;18.132;2023-11-18T03:05:13;5.40;;;1.90;;
57317;SDS011;43157;50.982;18.132;2023-11-18T03:07:49;6.20;;;2.30;;
57317;SDS011;43157;50.982;18.132;2023-11-18T03:10:15;7.00;;;2.00;;
57317;SDS011;43157;50.982;18.132;2023-11-18T03:12:48;6.70;;;2.10;;
57317;SDS011;43157;50.982;18.132;2023-11-18T03:15:15;7.20;;;2.00;;
57317;SDS011;43157;50.982;18.132;2023-11-18T03:17:46;8.70;;;2.40;;
57317;SDS011;43157;50.982;18.132;2023-11-18T03:20:16;7.00;;;1.70;;
57317;SDS011;43157;50.982;18.132;2023-11-18T03:22:43;6.10;;;1.90;;
57317;SDS011;43157;50.982;18.132;2023-11-18T03:25:10;6.20;;;1.50;;
57317;SDS011;43157;50.982;18.132;2023-11-18T03:27:36;10.00;;;2.80;;
57317;SDS011;43157;50.982;18.132;2023-11-18T03:30:02;5.80;;;2.00;;
57317;SDS011;43157;50.982;18.132;2023-11-18T03:32:29;8.20;;;3.10;;
57317;SDS011;43157;50.982;18.132;2023-11-18T03:34:54;9.60;;;4.10;;
57317;SDS011;43157;50.982;18.132;2023-11-18T03:37:20;9.50;;;4.10;;
57317;SDS011;43157;50.982;18.132;2023-11-18T03:39:48;10.80;;;5.60;;
57317;SDS011;43157;50.982;18.132;2023-11-18T03:42:14;7.80;;;3.50;;
57317;SDS011;43157;50.982;18.132;2023-11-18T03:44:40;7.90;;;3.10;;
57317;SDS011;43157;50.982;18.132;2023-11-18T03:47:06;9.00;;;3.50;;
57317;SDS011;43157;50.982;18.132;2023-11-18T03:49:32;6.70;;;2.40;;
57317;SDS011;43157;50.982;18.132;2023-11-18T03:51:58;6.20;;;2.00;;
57317;SDS011;43157;50.982;18.132;2023-11-18T03:54:23;10.50;;;2.30;;
57317;SDS011;43157;50.982;18.132;2023-11-18T03:56:50;8.10;;;2.20;;
57317;SDS011;43157;50.982;18.132;2023-11-18T03:59:15;9.00;;;3.10;;
57317;SDS011;43157;50.982;18.132;2023-11-18T04:01:41;9.40;;;3.10;;
57317;SDS011;43157;50.982;18.132;2023-11-18T04:04:06;9.90;;;3.40;;
57317;SDS011;43157;50.982;18.132;2023-11-18T04:06:32;9.30;;;2.90;;
57317;SDS011;43157;50.982;18.132;2023-11-18T04:08:57;11.70;;;3.70;;
57317;SDS011;43157;50.982;18.132;2023-11-18T04:11:24;9.50;;;3.30;;
57317;SDS011;43157;50.982;18.132;2023-11-18T04:13:49;11.20;;;3.30;;
57317;SDS011;43157;50.982;18.132;2023-11-18T04:16:15;9.00;;;3.40;;
57317;SDS011;43157;50.982;18.132;2023-11-18T04:18:42;11.80;;;4.20;;
57317;SDS011;43157;50.982;18.132;2023-11-18T04:21:08;11.70;;;4.00;;
57317;SDS011;43157;50.982;18.132;2023-11-18T04:23:37;12.90;;;5.00;;
57317;SDS011;43157;50.982;18.132;2023-11-18T04:26:04;13.90;;;4.50;;
57317;SDS011;43157;50.982;18.132;2023-11-18T04:28:30;15.90;;;5.90;;
57317;SDS011;43157;50.982;18.132;2023-11-18T04:30:57;19.10;;;7.80;;
57317;SDS011;43157;50.982;18.132;2023-11-18T04:33:22;18.00;;;6.90;;
57317;SDS011;43157;50.982;18.132;2023-11-18T04:35:50;18.20;;;6.60;;
57317;SDS011;43157;50.982;18.132;2023-11-18T04:38:16;18.40;;;6.90;;
57317;SDS011;43157;50.982;18.132;2023-11-18T04:40:44;18.30;;;6.50;;
57317;SDS011;43157;50.982;18.132;2023-11-18T04:43:11;23.40;;;8.20;;
57317;SDS011;43157;50.982;18.132;2023-11-18T04:45:37;19.50;;;6.90;;
57317;SDS011;43157;50.982;18.132;2023-11-18T04:48:04;22.80;;;9.50;;
57317;SDS011;43157;50.982;18.132;2023-11-18T04:50:30;24.30;;;8.90;;
57317;SDS011;43157;50.982;18.132;2023-11-18T04:52:57;26.10;;;9.40;;
57317;SDS011;43157;50.982;18.132;2023-11-18T04:55:22;24.40;;;9.20;;
57317;SDS011;43157;50.982;18.132;2023-11-18T04:57:48;23.50;;;8.70;;
57317;SDS011;43157;50.982;18.132;2023-11-18T05:00:13;22.70;;;7.80;;
57317;SDS011;43157;50.982;18.132;2023-11-18T05:02:43;23.80;;;8.40;;
57317;SDS011;43157;50.982;18.132;2023-11-18T05:05:09;23.50;;;9.80;;
57317;SDS011;43157;50.982;18.132;2023-11-18T05:07:36;22.80;;;9.20;;
57317;SDS011;43157;50.982;18.132;2023-11-18T05:10:03;23.80;;;9.30;;
57317;SDS011;43157;50.982;18.132;2023-11-18T05:12:29;26.40;;;10.30;;
57317;SDS011;43157;50.982;18.132;2023-11-18T05:14:57;28.20;;;10.10;;
57317;SDS011;43157;50.982;18.132;2023-11-18T05:17:23;28.90;;;11.30;;
57317;SDS011;43157;50.982;18.132;2023-11-18T05:19:49;23.30;;;9.50;;
57317;SDS011;43157;50.982;18.132;2023-11-18T05:22:14;24.40;;;9.20;;
57317;SDS011;43157;50.982;18.132;2023-11-18T05:24:41;23.10;;;9.10;;
57317;SDS011;43157;50.982;18.132;2023-11-18T05:27:06;25.50;;;9.70;;
57317;SDS011;43157;50.982;18.132;2023-11-18T05:29:32;22.60;;;9.60;;
57317;SDS011;43157;50.982;18.132;2023-11-18T05:31:58;26.20;;;10.80;;
57317;SDS011;43157;50.982;18.132;2023-11-18T05:34:24;24.60;;;10.20;;
57317;SDS011;43157;50.982;18.132;2023-11-18T05:36:50;26.70;;;11.10;;
57317;SDS011;43157;50.982;18.132;2023-11-18T05:39:22;23.30;;;9.70;;
57317;SDS011;43157;50.982;18.132;2023-11-18T05:41:49;30.60;;;11.20;;
57317;SDS011;43157;50.982;18.132;2023-11-18T05:44:16;32.40;;;11.20;;
57317;SDS011;43157;50.982;18.132;2023-11-18T05:46:45;26.20;;;10.60;;
57317;SDS011;43157;50.982;18.132;2023-11-18T05:49:16;29.50;;;11.40;;
57317;SDS011;43157;50.982;18.132;2023-11-18T05:51:43;29.20;;;12.80;;
57317;SDS011;43157;50.982;18.132;2023-11-18T05:54:09;28.80;;;11.70;;
57317;SDS011;43157;50.982;18.132;2023-11-18T05:56:35;32.10;;;10.90;;
57317;SDS011;43157;50.982;18.132;2023-11-18T05:59:01;28.60;;;11.90;;
57317;SDS011;43157;50.982;18.132;2023-11-18T06:01:28;26.80;;;10.50;;
57317;SDS011;43157;50.982;18.132;2023-11-18T06:03:54;28.70;;;11.20;;
57317;SDS011;43157;50.982;18.132;2023-11-18T06:06:22;28.00;;;11.50;;
57317;SDS011;43157;50.982;18.132;2023-11-18T06:08:47;25.20;;;11.00;;
57317;SDS011;43157;50.982;18.132;2023-11-18T06:11:14;25.70;;;11.90;;
57317;SDS011;43157;50.982;18.132;2023-11-18T06:13:43;25.30;;;10.70;;
57317;SDS011;43157;50.982;18.132;2023-11-18T06:16:13;25.70;;;11.20;;
57317;SDS011;43157;50.982;18.132;2023-11-18T06:18:40;25.70;;;10.60;;
57317;SDS011;43157;50.982;18.132;2023-11-18T06:21:16;23.70;;;9.10;;
57317;SDS011;43157;50.982;18.132;2023-11-18T06:23:45;28.70;;;12.30;;
57317;SDS011;43157;50.982;18.132;2023-11-18T06:26:13;22.70;;;9.20;;
57317;SDS011;43157;50.982;18.132;2023-11-18T06:28:42;27.70;;;10.30;;
57317;SDS011;43157;50.982;18.132;2023-11-18T06:31:09;29.90;;;10.40;;
57317;SDS011;43157;50.982;18.132;2023-11-18T06:38:38;29.00;;;12.40;;
57317;SDS011;43157;50.982;18.132;2023-11-18T06:41:05;31.40;;;12.30;;
57317;SDS011;43157;50.982;18.132;2023-11-18T06:43:36;29.80;;;10.80;;
57317;SDS011;43157;50.982;18.132;2023-11-18T06:46:19;31.70;;;11.70;;
57317;SDS011;43157;50.982;18.132;2023-11-18T06:48:50;29.20;;;11.30;;
57317;SDS011;43157;50.982;18.132;2023-11-18T06:51:22;30.50;;;12.60;;
57317;SDS011;43157;50.982;18.132;2023-11-18T06:53:55;30.80;;;11.90;;
57317;SDS011;43157;50.982;18.132;2023-11-18T06:56:21;28.00;;;11.90;;
57317;SDS011;43157;50.982;18.132;2023-11-18T06:58:51;32.30;;;12.10;;
57317;SDS011;43157;50.982;18.132;2023-11-18T07:01:17;32.40;;;11.60;;
57317;SDS011;43157;50.982;18.132;2023-11-18T07:03:43;33.70;;;13.90;;
57317;SDS011;43157;50.982;18.132;2023-11-18T07:06:10;34.70;;;13.30;;
57317;SDS011;43157;50.982;18.132;2023-11-18T07:08:36;33.40;;;14.90;;
57317;SDS011;43157;50.982;18.132;2023-11-18T07:11:05;29.70;;;11.40;;
57317;SDS011;43157;50.982;18.132;2023-11-18T07:13:31;35.20;;;15.00;;
57317;SDS011;43157;50.982;18.132;2023-11-18T07:16:00;30.20;;;12.00;;
57317;SDS011;43157;50.982;18.132;2023-11-18T07:18:28;24.50;;;11.30;;
57317;SDS011;43157;50.982;18.132;2023-11-18T07:20:56;20.40;;;8.50;;
57317;SDS011;43157;50.982;18.132;2023-11-18T07:23:24;17.90;;;6.40;;
57317;SDS011;43157;50.982;18.132;2023-11-18T07:25:49;13.10;;;5.00;;
57317;SDS011;43157;50.982;18.132;2023-11-18T07:28:14;12.90;;;4.70;;
57317;SDS011;43157;50.982;18.132;2023-11-18T07:44:07;11.80;;;4.00;;
57317;SDS011;43157;50.982;18.132;2023-11-18T07:46:36;11.30;;;4.00;;
57317;SDS011;43157;50.982;18.132;2023-11-18T07:49:03;12.10;;;4.30;;
57317;SDS011;43157;50.982;18.132;2023-11-18T07:51:29;13.10;;;3.90;;
57317;SDS011;43157;50.982;18.132;2023-11-18T07:53:55;8.70;;;3.30;;
57317;SDS011;43157;50.982;18.132;2023-11-18T07:56:21;8.80;;;3.30;;
57317;SDS011;43157;50.982;18.132;2023-11-18T07:58:49;10.00;;;3.30;;
57317;SDS011;43157;50.982;18.132;2023-11-18T08:01:15;10.00;;;4.00;;
57317;SDS011;43157;50.982;18.132;2023-11-18T08:03:42;10.20;;;3.40;;
57317;SDS011;43157;50.982;18.132;2023-11-18T08:06:08;10.00;;;4.30;;
57317;SDS011;43157;50.982;18.132;2023-11-18T08:08:36;9.20;;;3.20;;
57317;SDS011;43157;50.982;18.132;2023-11-18T08:11:06;8.90;;;3.00;;
57317;SDS011;43157;50.982;18.132;2023-11-18T08:13:32;8.30;;;3.10;;
57317;SDS011;43157;50.982;18.132;2023-11-18T08:15:58;9.30;;;3.00;;
57317;SDS011;43157;50.982;18.132;2023-11-18T08:18:23;10.70;;;3.20;;
57317;SDS011;43157;50.982;18.132;2023-11-18T08:20:49;7.60;;;2.60;;
57317;SDS011;43157;50.982;18.132;2023-11-18T08:23:15;9.00;;;2.80;;
57317;SDS011;43157;50.982;18.132;2023-11-18T08:25:41;8.30;;;2.90;;
57317;SDS011;43157;50.982;18.132;2023-11-18T08:28:07;9.00;;;3.20;;
57317;SDS011;43157;50.982;18.132;2023-11-18T08:30:33;8.70;;;2.80;;
57317;SDS011;43157;50.982;18.132;2023-11-18T08:32:59;8.50;;;2.90;;
57317;SDS011;43157;50.982;18.132;2023-11-18T08:35:25;8.10;;;3.10;;
57317;SDS011;43157;50.982;18.132;2023-11-18T08:37:51;9.40;;;3.10;;
57317;SDS011;43157;50.982;18.132;2023-11-18T08:40:17;8.80;;;3.00;;
57317;SDS011;43157;50.982;18.132;2023-11-18T08:42:50;9.80;;;3.10;;
57317;SDS011;43157;50.982;18.132;2023-11-18T08:45:17;8.80;;;3.20;;
57317;SDS011;43157;50.982;18.132;2023-11-18T08:47:44;7.90;;;3.10;;
57317;SDS011;43157;50.982;18.132;2023-11-18T08:50:12;9.50;;;3.20;;
57317;SDS011;43157;50.982;18.132;2023-11-18T08:52:42;9.10;;;3.40;;
57317;SDS011;43157;50.982;18.132;2023-11-18T08:57:49;9.00;;;3.20;;
57317;SDS011;43157;50.982;18.132;2023-11-18T09:00:39;8.50;;;2.40;;
57317;SDS011;43157;50.982;18.132;2023-11-18T09:03:11;9.70;;;3.20;;
57317;SDS011;43157;50.982;18.132;2023-11-18T09:06:00;10.10;;;4.20;;
57317;SDS011;43157;50.982;18.132;2023-11-18T09:08:31;8.70;;;3.50;;
57317;SDS011;43157;50.982;18.132;2023-11-18T09:11:10;10.80;;;4.70;;
57317;SDS011;43157;50.982;18.132;2023-11-18T09:13:45;9.10;;;3.00;;
57317;SDS011;43157;50.982;18.132;2023-11-18T09:16:19;10.80;;;3.70;;
57317;SDS011;43157;50.982;18.132;2023-11-18T09:18:51;9.90;;;3.90;;
57317;SDS011;43157;50.982;18.132;2023-11-18T09:21:17;12.10;;;4.30;;
57317;SDS011;43157;50.982;18.132;2023-11-18T09:23:50;12.60;;;4.60;;
57317;SDS011;43157;50.982;18.132;2023-11-18T09:26:16;11.40;;;4.30;;
57317;SDS011;43157;50.982;18.132;2023-11-18T09:28:42;11.90;;;4.90;;
57317;SDS011;43157;50.982;18.132;2023-11-18T09:31:10;12.20;;;4.50;;
57317;SDS011;43157;50.982;18.132;2023-11-18T09:33:37;12.60;;;4.90;;
57317;SDS011;43157;50.982;18.132;2023-11-18T09:36:06;12.00;;;4.70;;
57317;SDS011;43157;50.982;18.132;2023-11-18T09:38:36;12.30;;;4.80;;
57317;SDS011;43157;50.982;18.132;2023-11-18T09:41:04;12.20;;;4.50;;
57317;SDS011;43157;50.982;18.132;2023-11-18T09:43:32;10.90;;;4.40;;
57317;SDS011;43157;50.982;18.132;2023-11-18T09:46:04;12.30;;;5.30;;
57317;SDS011;43157;50.982;18.132;2023-11-18T09:51:21;13.00;;;5.50;;
57317;SDS011;43157;50.982;18.132;2023-11-18T09:53:59;13.40;;;4.80;;
57317;SDS011;43157;50.982;18.132;2023-11-18T10:01:56;14.10;;;5.60;;
57317;SDS011;43157;50.982;18.132;2023-11-18T10:04:26;12.50;;;4.40;;
57317;SDS011;43157;50.982;18.132;2023-11-18T10:06:55;12.30;;;4.90;;
57317;SDS011;43157;50.982;18.132;2023-11-18T10:09:22;13.20;;;5.30;;
57317;SDS011;43157;50.982;18.132;2023-11-18T10:12:02;13.60;;;5.60;;
57317;SDS011;43157;50.982;18.132;2023-11-18T10:14:35;15.50;;;5.30;;
57317;SDS011;43157;50.982;18.132;2023-11-18T10:17:04;15.60;;;6.50;;
57317;SDS011;43157;50.982;18.132;2023-11-18T10:22:23;16.00;;;6.80;;
57317;SDS011;43157;50.982;18.132;2023-11-18T10:24:54;17.10;;;6.70;;
57317;SDS011;43157;50.982;18.132;2023-11-18T10:27:21;15.70;;;6.70;;
57317;SDS011;43157;50.982;18.132;2023-11-18T10:29:50;17.50;;;6.90;;
57317;SDS011;43157;50.982;18.132;2023-11-18T10:32:23;20.50;;;7.80;;
57317;SDS011;43157;50.982;18.132;2023-11-18T10:34:58;18.10;;;6.80;;
57317;SDS011;43157;50.982;18.132;2023-11-18T10:37:27;16.80;;;6.40;;
57317;SDS011;43157;50.982;18.132;2023-11-18T10:39:56;17.80;;;6.40;;
57317;SDS011;43157;50.982;18.132;2023-11-18T10:42:25;16.60;;;7.30;;
57317;SDS011;43157;50.982;18.132;2023-11-18T10:44:55;20.70;;;7.00;;
57317;SDS011;43157;50.982;18.132;2023-11-18T10:47:27;19.60;;;8.60;;
57317;SDS011;43157;50.982;18.132;2023-11-18T10:49:54;14.60;;;6.90;;
57317;SDS011;43157;50.982;18.132;2023-11-18T10:52:22;13.90;;;6.50;;
57317;SDS011;43157;50.982;18.132;2023-11-18T10:54:52;16.30;;;7.40;;
57317;SDS011;43157;50.982;18.132;2023-11-18T10:57:20;18.20;;;7.40;;
57317;SDS011;43157;50.982;18.132;2023-11-18T11:02:45;16.50;;;7.50;;
57317;SDS011;43157;50.982;18.132;2023-11-18T11:05:27;16.60;;;7.60;;
57317;SDS011;43157;50.982;18.132;2023-11-18T11:07:57;18.60;;;8.20;;
57317;SDS011;43157;50.982;18.132;2023-11-18T11:10:24;17.20;;;8.20;;
57317;SDS011;43157;50.982;18.132;2023-11-18T11:12:54;18.50;;;8.30;;
57317;SDS011;43157;50.982;18.132;2023-11-18T11:15:29;19.90;;;8.90;;
57317;SDS011;43157;50.982;18.132;2023-11-18T11:17:56;19.80;;;9.40;;
57317;SDS011;43157;50.982;18.132;2023-11-18T11:20:47;18.10;;;7.50;;
57317;SDS011;43157;50.982;18.132;2023-11-18T11:23:21;22.20;;;8.60;;
57317;SDS011;43157;50.982;18.132;2023-11-18T11:26:10;16.60;;;7.40;;
57317;SDS011;43157;50.982;18.132;2023-11-18T11:31:39;18.00;;;8.90;;
57317;SDS011;43157;50.982;18.132;2023-11-18T11:34:06;18.60;;;8.10;;
57317;SDS011;43157;50.982;18.132;2023-11-18T11:36:48;20.00;;;9.40;;
57317;SDS011;43157;50.982;18.132;2023-11-18T11:39:16;19.80;;;7.60;;
57317;SDS011;43157;50.982;18.132;2023-11-18T11:41:50;19.70;;;9.20;;
57317;SDS011;43157;50.982;18.132;2023-11-18T11:44:17;17.50;;;7.70;;
57317;SDS011;43157;50.982;18.132;2023-11-18T11:46:46;18.90;;;8.90;;
57317;SDS011;43157;50.982;18.132;2023-11-18T11:49:19;16.20;;;7.30;;
57317;SDS011;43157;50.982;18.132;2023-11-18T11:54:52;20.30;;;8.70;;
57317;SDS011;43157;50.982;18.132;2023-11-18T11:57:24;17.40;;;8.30;;
57317;SDS011;43157;50.982;18.132;2023-11-18T12:02:21;18.60;;;9.30;;
57317;SDS011;43157;50.982;18.132;2023-11-18T12:04:57;19.60;;;9.00;;
57317;SDS011;43157;50.982;18.132;2023-11-18T12:07:27;26.70;;;11.40;;
57317;SDS011;43157;50.982;18.132;2023-11-18T12:09:57;20.60;;;10.00;;
57317;SDS011;43157;50.982;18.132;2023-11-18T12:12:24;20.70;;;10.10;;
57317;SDS011;43157;50.982;18.132;2023-11-18T12:14:56;23.40;;;10.70;;
57317;SDS011;43157;50.982;18.132;2023-11-18T12:17:25;22.80;;;12.70;;
57317;SDS011;43157;50.982;18.132;2023-11-18T12:19:57;22.00;;;9.90;;
57317;SDS011;43157;50.982;18.132;2023-11-18T12:23:02;21.30;;;9.60;;
57317;SDS011;43157;50.982;18.132;2023-11-18T12:25:40;21.70;;;9.80;;
57317;SDS011;43157;50.982;18.132;2023-11-18T12:28:15;26.90;;;12.70;;
57317;SDS011;43157;50.982;18.132;2023-11-18T12:30:42;24.50;;;10.80;;
57317;SDS011;43157;50.982;18.132;2023-11-18T12:33:18;23.40;;;11.90;;
57317;SDS011;43157;50.982;18.132;2023-11-18T12:44:29;22.80;;;10.10;;
57317;SDS011;43157;50.982;18.132;2023-11-18T12:47:00;27.30;;;12.00;;
57317;SDS011;43157;50.982;18.132;2023-11-18T12:49:47;23.00;;;9.70;;
57317;SDS011;43157;50.982;18.132;2023-11-18T12:52:20;25.90;;;12.40;;
57317;SDS011;43157;50.982;18.132;2023-11-18T12:54:49;22.20;;;10.10;;
57317;SDS011;43157;50.982;18.132;2023-11-18T12:57:26;28.20;;;12.10;;
57317;SDS011;43157;50.982;18.132;2023-11-18T12:59:56;27.10;;;12.10;;
57317;SDS011;43157;50.982;18.132;2023-11-18T13:02:22;26.60;;;12.70;;
57317;SDS011;43157;50.982;18.132;2023-11-18T13:04:50;25.80;;;12.40;;
57317;SDS011;43157;50.982;18.132;2023-11-18T13:07:19;27.80;;;12.10;;
57317;SDS011;43157;50.982;18.132;2023-11-18T13:09:47;28.50;;;14.40;;
57317;SDS011;43157;50.982;18.132;2023-11-18T13:12:14;30.60;;;14.10;;
57317;SDS011;43157;50.982;18.132;2023-11-18T13:14:41;26.90;;;13.60;;
57317;SDS011;43157;50.982;18.132;2023-11-18T13:17:11;30.40;;;12.40;;
57317;SDS011;43157;50.982;18.132;2023-11-18T13:19:38;28.80;;;13.70;;
57317;SDS011;43157;50.982;18.132;2023-11-18T13:22:05;28.20;;;14.20;;
57317;SDS011;43157;50.982;18.132;2023-11-18T13:24:34;26.00;;;12.90;;
57317;SDS011;43157;50.982;18.132;2023-11-18T13:27:09;28.00;;;16.50;;
57317;SDS011;43157;50.982;18.132;2023-11-18T13:29:36;25.20;;;11.80;;
57317;SDS011;43157;50.982;18.132;2023-11-18T13:32:05;26.40;;;11.80;;
57317;SDS011;43157;50.982;18.132;2023-11-18T13:34:33;28.40;;;13.10;;
57317;SDS011;43157;50.982;18.132;2023-11-18T13:37:01;25.20;;;12.00;;
57317;SDS011;43157;50.982;18.132;2023-11-18T13:39:27;25.70;;;12.90;;
57317;SDS011;43157;50.982;18.132;2023-11-18T13:41:53;28.50;;;14.40;;
57317;SDS011;43157;50.982;18.132;2023-11-18T13:44:32;27.10;;;12.40;;
57317;SDS011;43157;50.982;18.132;2023-11-18T13:47:06;28.60;;;13.20;;
57317;SDS011;43157;50.982;18.132;2023-11-18T13:49:32;28.20;;;12.90;;
57317;SDS011;43157;50.982;18.132;2023-11-18T13:52:02;31.60;;;13.90;;
57317;SDS011;43157;50.982;18.132;2023-11-18T13:54:28;29.00;;;13.30;;
57317;SDS011;43157;50.982;18.132;2023-11-18T13:56:55;32.80;;;16.90;;
57317;SDS011;43157;50.982;18.132;2023-11-18T13:59:25;30.70;;;14.70;;
57317;SDS011;43157;50.982;18.132;2023-11-18T14:01:54;29.20;;;14.70;;
57317;SDS011;43157;50.982;18.132;2023-11-18T14:04:27;28.00;;;14.30;;
57317;SDS011;43157;50.982;18.132;2023-11-18T14:06:57;30.50;;;15.10;;
57317;SDS011;43157;50.982;18.132;2023-11-18T14:09:29;31.10;;;13.80;;
57317;SDS011;43157;50.982;18.132;2023-11-18T14:11:55;32.70;;;15.70;;
57317;SDS011;43157;50.982;18.132;2023-11-18T14:14:22;34.30;;;14.70;;
57317;SDS011;43157;50.982;18.132;2023-11-18T14:16:48;37.50;;;14.50;;
57317;SDS011;43157;50.982;18.132;2023-11-18T14:19:14;32.30;;;14.70;;
57317;SDS011;43157;50.982;18.132;2023-11-18T14:21:40;34.50;;;16.80;;
57317;SDS011;43157;50.982;18.132;2023-11-18T14:24:07;31.50;;;15.40;;
57317;SDS011;43157;50.982;18.132;2023-11-18T14:26:33;32.50;;;15.90;;
57317;SDS011;43157;50.982;18.132;2023-11-18T14:28:59;33.90;;;15.50;;
57317;SDS011;43157;50.982;18.132;2023-11-18T14:31:25;29.80;;;13.40;;
57317;SDS011;43157;50.982;18.132;2023-11-18T14:33:51;28.80;;;14.40;;
57317;SDS011;43157;50.982;18.132;2023-11-18T14:36:17;33.70;;;15.60;;
57317;SDS011;43157;50.982;18.132;2023-11-18T14:38:44;30.50;;;13.50;;
57317;SDS011;43157;50.982;18.132;2023-11-18T14:41:10;32.30;;;13.80;;
57317;SDS011;43157;50.982;18.132;2023-11-18T14:43:36;31.20;;;14.30;;
57317;SDS011;43157;50.982;18.132;2023-11-18T14:46:02;32.80;;;15.10;;
57317;SDS011;43157;50.982;18.132;2023-11-18T14:48:29;28.80;;;13.90;;
57317;SDS011;43157;50.982;18.132;2023-11-18T14:50:54;32.30;;;14.50;;
57317;SDS011;43157;50.982;18.132;2023-11-18T14:53:22;33.00;;;13.40;;
57317;SDS011;43157;50.982;18.132;2023-11-18T14:55:48;33.00;;;15.90;;
57317;SDS011;43157;50.982;18.132;2023-11-18T14:58:14;37.80;;;16.10;;
57317;SDS011;43157;50.982;18.132;2023-11-18T15:00:40;32.90;;;15.90;;
57317;SDS011;43157;50.982;18.132;2023-11-18T15:03:07;31.40;;;14.60;;
57317;SDS011;43157;50.982;18.132;2023-11-18T15:05:34;35.30;;;15.30;;
57317;SDS011;43157;50.982;18.132;2023-11-18T15:07:59;37.00;;;16.10;;
57317;SDS011;43157;50.982;18.132;2023-11-18T15:10:26;37.50;;;16.00;;
57317;SDS011;43157;50.982;18.132;2023-11-18T15:12:53;39.70;;;17.60;;
57317;SDS011;43157;50.982;18.132;2023-11-18T15:15:22;40.80;;;18.00;;
57317;SDS011;43157;50.982;18.132;2023-11-18T15:17:56;38.00;;;17.70;;
57317;SDS011;43157;50.982;18.132;2023-11-18T15:20:28;41.00;;;17.20;;
57317;SDS011;43157;50.982;18.132;2023-11-18T15:22:55;44.50;;;20.40;;